Time;durP1;ratioP1;P1;durP2;ratioP2;P2;SDS_P1;SDS_P2;PMS_P1;PMS_P2;Temp;Humidity;BMP_temperature;BMP_pressure;BME280_temperature;BME280_humidity;BME280_pressure;Samples;Min_cycle;Max_cycle;Signal;HPM_P1;HPM_P2
2023/04/14 00:01:15;;;;;;;4.23;2.67;;;5.70;98.00;;;;;;5035831;28;21081;-64
2023/04/14 00:03:43;;;;;;;4.23;2.30;;;5.70;98.00;;;;;;5053710;28;20453;-64
2023/04/14 00:06:11;;;;;;;4.70;2.50;;;5.70;98.00;;;;;;5053742;28;20482;-64
2023/04/14 00:08:39;;;;;;;5.43;2.60;;;5.60;98.00;;;;;;5053586;28;20465;-66
2023/04/14 00:11:06;;;;;;;4.00;2.00;;;5.60;98.00;;;;;;5053413;28;20974;-64
2023/04/14 00:13:40;;;;;;;4.23;2.33;;;5.60;98.00;;;;;;5053566;28;20513;-64
2023/04/14 00:16:08;;;;;;;3.53;1.70;;;5.70;98.00;;;;;;5053279;28;20458;-64
2023/04/14 00:18:35;;;;;;;1.90;1.80;;;5.80;98.00;;;;;;5053094;28;20463;-66
2023/04/14 00:21:02;;;;;;;6.63;2.80;;;5.90;98.00;;;;;;5052943;28;20487;-64
2023/04/14 00:23:29;;;;;;;4.07;2.53;;;5.80;98.00;;;;;;5053136;28;20529;-64
2023/04/14 00:25:58;;;;;;;2.90;2.17;;;5.70;98.00;;;;;;5053241;28;20486;-64
2023/04/14 00:28:25;;;;;;;2.93;2.10;;;5.60;98.00;;;;;;5052895;28;20456;-63
2023/04/14 00:30:52;;;;;;;4.57;1.80;;;5.60;98.00;;;;;;5052179;28;20504;-64
2023/04/14 00:33:19;;;;;;;3.87;1.57;;;5.70;98.00;;;;;;5035168;28;20457;-65
2023/04/14 00:35:46;;;;;;;5.80;2.07;;;5.90;98.00;;;;;;5052980;28;20472;-64
2023/04/14 00:38:13;;;;;;;2.33;1.80;;;6.00;98.00;;;;;;5035081;28;20512;-64
2023/04/14 00:40:40;;;;;;;2.03;1.83;;;6.00;98.00;;;;;;5052748;28;20496;-64
2023/04/14 00:43:09;;;;;;;1.90;1.83;;;6.10;98.00;;;;;;5052647;28;20527;-64
2023/04/14 00:45:42;;;;;;;2.50;1.43;;;6.00;98.00;;;;;;5035254;28;20464;-64
2023/04/14 00:48:10;;;;;;;2.53;1.87;;;5.90;98.00;;;;;;5035777;28;20485;-65
2023/04/14 00:50:37;;;;;;;2.37;2.00;;;6.00;98.00;;;;;;5052603;28;20478;-64
2023/04/14 00:53:05;;;;;;;3.03;2.10;;;5.90;98.00;;;;;;5052520;28;20519;-64
2023/04/14 00:55:33;;;;;;;2.77;1.77;;;5.90;98.00;;;;;;5052586;28;20519;-64
2023/04/14 00:58:02;;;;;;;2.47;1.90;;;6.00;98.00;;;;;;5052373;28;20966;-64
2023/04/14 01:00:31;;;;;;;2.70;1.83;;;6.00;98.00;;;;;;5052144;28;20594;-66
2023/04/14 01:02:58;;;;;;;3.33;2.07;;;6.00;98.00;;;;;;5052060;28;20513;-64
2023/04/14 01:05:25;;;;;;;3.57;2.17;;;6.10;98.00;;;;;;5052319;28;20476;-66
2023/04/14 01:07:53;;;;;;;3.20;2.07;;;6.10;98.00;;;;;;5052411;28;20531;-64
2023/04/14 01:10:20;;;;;;;2.73;1.80;;;6.00;98.00;;;;;;5052655;28;20459;-65
2023/04/14 01:13:05;;;;;;;3.07;1.70;;;5.90;98.00;;;;;;5034389;28;20460;-64
2023/04/14 01:15:39;;;;;;;9.87;1.93;;;5.90;98.00;;;;;;5052479;28;20463;-64
2023/04/14 01:18:14;;;;;;;4.87;2.33;;;5.90;98.00;;;;;;5051372;28;20961;-64
2023/04/14 01:20:44;;;;;;;4.30;2.30;;;5.80;98.00;;;;;;5052015;28;20530;-64
2023/04/14 01:23:17;;;;;;;5.67;2.30;;;5.80;98.00;;;;;;5052257;28;20447;-64
2023/04/14 01:26:11;;;;;;;1.73;1.70;;;5.80;98.00;;;;;;5051770;28;20962;-64
2023/04/14 01:28:48;;;;;;;4.60;2.97;;;6.00;98.00;;;;;;5051846;28;20518;-65
2023/04/14 01:31:25;;;;;;;3.00;1.77;;;6.10;98.00;;;;;;5034989;28;20460;-63
2023/04/14 01:33:57;;;;;;;2.33;2.07;;;6.20;98.00;;;;;;5051581;28;20510;-64
2023/04/14 01:36:30;;;;;;;2.83;2.00;;;6.20;98.00;;;;;;5051733;28;20459;-64
2023/04/14 01:38:58;;;;;;;10.20;3.07;;;6.30;98.00;;;;;;5051482;28;20520;-64
2023/04/14 01:41:28;;;;;;;3.77;2.20;;;6.20;98.00;;;;;;5051619;28;20494;-63
2023/04/14 01:43:59;;;;;;;4.40;1.77;;;6.00;98.00;;;;;;5034073;28;20868;-65
2023/04/14 01:46:27;;;;;;;3.53;2.07;;;6.20;98.00;;;;;;5051645;28;20472;-64
2023/04/14 01:48:55;;;;;;;2.50;2.10;;;6.30;98.00;;;;;;5051341;28;20449;-64
2023/04/14 01:51:23;;;;;;;5.03;2.80;;;6.40;98.00;;;;;;5051679;28;20476;-65
2023/04/14 01:53:51;;;;;;;6.67;3.60;;;6.40;98.00;;;;;;5051288;28;20456;-64
2023/04/14 01:56:19;;;;;;;3.60;2.53;;;6.40;98.00;;;;;;5051461;28;20972;-65
2023/04/14 01:58:48;;;;;;;4.90;2.40;;;6.40;98.00;;;;;;5051452;28;20491;-64
2023/04/14 02:01:16;;;;;;;3.67;2.23;;;6.30;98.00;;;;;;5051367;28;20478;-66
2023/04/14 02:03:46;;;;;;;4.00;2.40;;;6.30;98.00;;;;;;5051212;28;20545;-64
2023/04/14 02:06:16;;;;;;;3.23;2.13;;;6.30;98.00;;;;;;5051682;28;20467;-64
2023/04/14 02:08:43;;;;;;;3.63;1.97;;;6.30;98.00;;;;;;5033624;28;20974;-64
2023/04/14 02:11:14;;;;;;;4.40;2.23;;;6.20;98.00;;;;;;5051233;28;20459;-64
2023/04/14 02:13:43;;;;;;;7.40;2.80;;;6.20;98.00;;;;;;5051246;28;21013;-65
2023/04/14 02:16:11;;;;;;;4.73;2.00;;;6.20;98.00;;;;;;5051047;28;20461;-64
2023/04/14 02:18:41;;;;;;;6.63;2.87;;;6.20;98.00;;;;;;5050963;28;20456;-65
2023/04/14 02:21:11;;;;;;;3.17;2.07;;;6.20;98.00;;;;;;5050513;28;20493;-64
2023/04/14 02:23:38;;;;;;;4.23;2.40;;;6.20;98.00;;;;;;5051165;28;20455;-65
2023/04/14 02:26:23;;;;;;;2.53;2.00;;;6.20;98.00;;;;;;5051137;28;20456;-65
2023/04/14 02:28:58;;;;;;;3.03;2.43;;;6.20;98.00;;;;;;5033080;28;20993;-65
2023/04/14 02:31:30;;;;;;;3.40;2.53;;;6.20;98.00;;;;;;5033302;28;20871;-65
2023/04/14 02:34:00;;;;;;;4.33;2.40;;;6.20;98.00;;;;;;5050663;28;20460;-63
2023/04/14 02:36:34;;;;;;;4.57;2.63;;;6.30;98.00;;;;;;5050952;28;20474;-64
2023/04/14 02:39:06;;;;;;;4.80;2.43;;;6.50;98.00;;;;;;5033119;28;20465;-65
2023/04/14 02:41:36;;;;;;;3.97;2.73;;;6.50;98.00;;;;;;5050707;28;20483;-65
2023/04/14 02:44:08;;;;;;;4.13;2.30;;;6.50;98.00;;;;;;5050713;28;20912;-64
2023/04/14 02:46:40;;;;;;;3.57;2.00;;;6.60;98.00;;;;;;5050873;28;20511;-64
2023/04/14 02:49:09;;;;;;;3.60;1.90;;;6.60;98.00;;;;;;5050693;28;21086;-65
2023/04/14 02:51:40;;;;;;;2.87;2.00;;;6.40;98.00;;;;;;5050777;28;20686;-64
2023/04/14 02:54:08;;;;;;;5.23;2.47;;;6.40;98.00;;;;;;5052663;28;20454;-63
2023/04/14 02:56:47;;;;;;;1.87;1.40;;;6.40;98.00;;;;;;5054857;28;20459;-65
2023/04/14 02:59:14;;;;;;;5.00;2.63;;;6.50;98.00;;;;;;5038550;28;20471;-65
2023/04/14 03:01:43;;;;;;;7.70;2.93;;;6.40;98.00;;;;;;5037446;28;20487;-63
2023/04/14 03:04:10;;;;;;;4.40;2.60;;;6.30;98.00;;;;;;5054976;28;20455;-64
2023/04/14 03:06:40;;;;;;;4.90;2.50;;;6.10;98.00;;;;;;5037282;28;20504;-66
2023/04/14 03:09:08;;;;;;;7.37;2.60;;;6.00;98.00;;;;;;5054537;28;20458;-66
2023/04/14 03:11:36;;;;;;;2.73;2.13;;;6.00;98.00;;;;;;5054540;28;20455;-63
2023/04/14 03:14:04;;;;;;;3.90;2.10;;;5.90;98.00;;;;;;5036866;28;21032;-64
2023/04/14 03:16:33;;;;;;;3.63;2.50;;;5.80;98.00;;;;;;5054333;28;21005;-64
2023/04/14 03:19:01;;;;;;;4.40;2.73;;;5.70;98.00;;;;;;5054432;28;20872;-64
2023/04/14 03:21:29;;;;;;;4.07;2.50;;;5.80;98.00;;;;;;5054252;28;20537;-64
2023/04/14 03:23:58;;;;;;;5.07;2.20;;;5.80;98.00;;;;;;5054407;28;20459;-65
2023/04/14 03:26:27;;;;;;;2.13;1.77;;;5.80;98.00;;;;;;5054183;28;20459;-64
2023/04/14 03:28:57;;;;;;;2.93;2.30;;;5.90;98.00;;;;;;5036354;28;20495;-64
2023/04/14 03:31:32;;;;;;;3.77;2.00;;;5.90;98.00;;;;;;5054106;28;20504;-64
2023/04/14 03:34:02;;;;;;;2.00;1.83;;;5.90;98.00;;;;;;5054008;28;20455;-65
2023/04/14 03:36:34;;;;;;;3.73;2.43;;;6.10;98.00;;;;;;5054105;28;20476;-64
2023/04/14 03:39:05;;;;;;;5.33;2.13;;;6.10;98.00;;;;;;5053863;28;20471;-64
2023/04/14 03:41:36;;;;;;;2.53;2.13;;;6.20;98.00;;;;;;5053922;28;20495;-64
2023/04/14 03:44:06;;;;;;;2.60;1.83;;;6.20;98.00;;;;;;5053752;28;20940;-65
2023/04/14 03:46:33;;;;;;;3.60;2.23;;;6.20;98.00;;;;;;5053966;28;20917;-64
2023/04/14 03:49:01;;;;;;;3.90;2.63;;;6.20;98.00;;;;;;5053757;28;20511;-64
2023/04/14 03:51:32;;;;;;;3.97;2.00;;;6.20;98.00;;;;;;5053152;28;20529;-65
2023/04/14 03:54:01;;;;;;;3.93;2.40;;;6.20;98.00;;;;;;5053659;28;20459;-64
2023/04/14 03:56:32;;;;;;;4.53;1.90;;;6.20;98.00;;;;;;5053633;28;20449;-65
2023/04/14 03:59:01;;;;;;;3.40;2.47;;;6.10;98.00;;;;;;5053665;28;20462;-64
2023/04/14 04:01:28;;;;;;;2.83;2.13;;;6.10;98.00;;;;;;5053881;28;20490;-65
2023/04/14 04:03:57;;;;;;;5.27;2.20;;;6.10;98.00;;;;;;5053479;28;20518;-64
2023/04/14 04:06:25;;;;;;;3.47;2.33;;;6.00;98.00;;;;;;5053447;28;20459;-64
2023/04/14 04:08:53;;;;;;;2.90;1.63;;;5.90;98.00;;;;;;5053231;28;20964;-64
2023/04/14 04:11:21;;;;;;;3.83;1.90;;;5.90;98.00;;;;;;5053520;28;20466;-64
2023/04/14 04:13:51;;;;;;;2.80;1.87;;;6.00;98.00;;;;;;5053190;28;20521;-64
2023/04/14 04:16:20;;;;;;;3.30;2.03;;;6.10;98.00;;;;;;5053378;28;20947;-64
2023/04/14 04:18:49;;;;;;;2.87;1.90;;;6.10;98.00;;;;;;5035508;28;20524;-64
2023/04/14 04:21:19;;;;;;;3.13;2.07;;;6.10;98.00;;;;;;5053176;28;21107;-64
2023/04/14 04:23:51;;;;;;;5.43;1.80;;;6.10;98.00;;;;;;5035470;28;20478;-64
2023/04/14 04:26:18;;;;;;;4.07;2.57;;;6.00;98.00;;;;;;5053175;28;20490;-65
2023/04/14 04:28:47;;;;;;;3.00;1.93;;;5.90;98.00;;;;;;5053011;28;20912;-65
2023/04/14 04:31:16;;;;;;;2.43;1.60;;;5.70;98.00;;;;;;5053089;28;20452;-64
2023/04/14 04:33:45;;;;;;;2.80;2.00;;;5.60;98.00;;;;;;5052896;28;20469;-66
2023/04/14 04:36:13;;;;;;;1.50;1.37;;;5.60;98.00;;;;;;5052832;28;20540;-65
2023/04/14 04:38:41;;;;;;;2.80;1.87;;;5.60;98.00;;;;;;5052798;28;20507;-65
2023/04/14 04:41:08;;;;;;;2.30;2.00;;;5.70;98.00;;;;;;5052747;28;20485;-64
2023/04/14 04:43:35;;;;;;;2.60;1.67;;;5.80;98.00;;;;;;5052813;28;20455;-64
2023/04/14 04:46:22;;;;;;;3.00;1.60;;;5.90;98.00;;;;;;5052911;28;20532;-65
2023/04/14 04:48:52;;;;;;;2.13;1.50;;;5.90;98.00;;;;;;5052959;28;20461;-64
2023/04/14 04:51:21;;;;;;;2.20;1.70;;;5.90;98.00;;;;;;5035069;28;20962;-65
2023/04/14 04:53:48;;;;;;;3.57;1.80;;;5.90;98.00;;;;;;5052475;28;20482;-64
2023/04/14 04:56:15;;;;;;;2.93;2.03;;;6.00;98.00;;;;;;5052127;28;20528;-65
2023/04/14 04:58:42;;;;;;;5.60;1.80;;;5.90;98.00;;;;;;5052449;28;20462;-64
2023/04/14 05:01:10;;;;;;;2.40;1.63;;;5.90;98.00;;;;;;5053500;28;20513;-64
2023/04/14 05:03:39;;;;;;;2.83;1.80;;;5.70;98.00;;;;;;5052854;28;20508;-64
2023/04/14 05:06:06;;;;;;;2.37;1.27;;;5.60;98.00;;;;;;5052734;28;20507;-64
2023/04/14 05:08:34;;;;;;;3.80;1.57;;;5.40;98.00;;;;;;5052379;28;20458;-64
2023/04/14 05:11:01;;;;;;;1.90;1.63;;;5.50;98.00;;;;;;5052594;28;20456;-64
2023/04/14 05:13:28;;;;;;;2.83;1.80;;;5.50;98.00;;;;;;5052683;28;20464;-65
2023/04/14 05:16:03;;;;;;;2.53;2.03;;;5.30;98.00;;;;;;5051831;28;20615;-65
2023/04/14 05:18:30;;;;;;;2.80;1.70;;;5.20;98.00;;;;;;5052530;28;20898;-64
2023/04/14 05:21:03;;;;;;;2.30;1.80;;;5.20;98.00;;;;;;5051887;28;20462;-65
2023/04/14 05:23:32;;;;;;;6.27;2.43;;;5.20;98.00;;;;;;5052255;28;20454;-64
2023/04/14 05:25:59;;;;;;;3.20;2.07;;;5.20;98.00;;;;;;5051891;28;20977;-64
2023/04/14 05:28:26;;;;;;;2.60;1.83;;;5.30;98.00;;;;;;5051785;28;20455;-63
2023/04/14 05:30:54;;;;;;;1.97;1.40;;;5.20;98.00;;;;;;5052215;28;20884;-65
2023/04/14 05:33:21;;;;;;;7.40;2.93;;;5.40;98.00;;;;;;5052190;28;20550;-64
2023/04/14 05:35:49;;;;;;;2.50;1.53;;;5.40;98.00;;;;;;5051773;28;20547;-65
2023/04/14 05:38:19;;;;;;;1.80;1.53;;;5.50;98.00;;;;;;5052087;28;20462;-64
2023/04/14 05:40:47;;;;;;;3.87;1.70;;;5.30;98.00;;;;;;5051886;28;20877;-64
2023/04/14 05:43:14;;;;;;;2.43;1.70;;;5.20;98.00;;;;;;5051478;28;20526;-66
2023/04/14 05:45:41;;;;;;;3.27;1.90;;;5.20;98.00;;;;;;5051779;28;20459;-64
2023/04/14 05:48:09;;;;;;;1.60;1.47;;;5.10;98.00;;;;;;5051810;28;20465;-64
2023/04/14 05:50:37;;;;;;;2.70;1.77;;;4.90;98.00;;;;;;5051905;28;20469;-64
2023/04/14 05:53:04;;;;;;;2.13;1.40;;;4.90;98.00;;;;;;5051601;28;20470;-64
2023/04/14 05:55:40;;;;;;;4.47;2.20;;;5.10;98.00;;;;;;5051706;28;20460;-64
2023/04/14 05:58:07;;;;;;;6.07;2.33;;;5.10;98.00;;;;;;5051518;28;20551;-65
2023/04/14 06:00:35;;;;;;;2.60;1.47;;;5.10;98.00;;;;;;5051810;28;20843;-64
2023/04/14 06:03:02;;;;;;;1.60;1.57;;;5.20;98.00;;;;;;5051670;28;20596;-63
2023/04/14 06:05:29;;;;;;;4.23;2.70;;;5.30;98.00;;;;;;5034118;28;20887;-62
2023/04/14 06:07:56;;;;;;;2.97;1.80;;;5.40;98.00;;;;;;5051257;28;20507;-63
2023/04/14 06:10:26;;;;;;;3.53;1.83;;;5.50;98.00;;;;;;5051361;28;20452;-61
2023/04/14 06:12:55;;;;;;;5.50;2.37;;;5.70;98.00;;;;;;5050251;28;20461;-62
2023/04/14 06:15:25;;;;;;;1.80;1.63;;;5.80;98.00;;;;;;5051169;28;20990;-63
2023/04/14 06:17:53;;;;;;;4.00;2.60;;;5.60;98.00;;;;;;5050471;28;20493;-63
2023/04/14 06:20:21;;;;;;;3.53;2.43;;;5.50;98.00;;;;;;5051451;28;20461;-63
2023/04/14 06:22:48;;;;;;;3.60;2.07;;;5.50;98.00;;;;;;5050433;28;20506;-63
2023/04/14 06:25:15;;;;;;;5.93;2.87;;;5.50;98.00;;;;;;5051142;28;20827;-64
2023/04/14 06:27:42;;;;;;;2.73;1.73;;;5.70;98.00;;;;;;5050540;28;20459;-63
2023/04/14 06:30:14;;;;;;;3.77;2.10;;;5.70;98.00;;;;;;5051017;28;20466;-64
2023/04/14 06:32:41;;;;;;;4.63;1.87;;;5.70;98.00;;;;;;5051398;28;20455;-63
2023/04/14 06:35:08;;;;;;;3.20;1.90;;;5.80;98.00;;;;;;5051030;28;20550;-62
2023/04/14 06:37:37;;;;;;;4.93;2.73;;;6.00;98.00;;;;;;5049823;28;20458;-63
2023/04/14 06:40:05;;;;;;;2.00;1.90;;;5.90;98.00;;;;;;5051275;28;20529;-64
2023/04/14 06:42:32;;;;;;;3.30;2.40;;;6.10;98.00;;;;;;5050900;28;21002;-62
2023/04/14 06:44:59;;;;;;;2.77;2.00;;;6.20;98.00;;;;;;5050811;28;20485;-64
2023/04/14 06:47:30;;;;;;;3.73;2.37;;;6.10;98.00;;;;;;5051275;28;20862;-64
2023/04/14 06:49:57;;;;;;;2.43;1.77;;;6.30;98.00;;;;;;5051125;28;20459;-64
2023/04/14 06:52:24;;;;;;;3.43;1.87;;;6.40;98.00;;;;;;5051139;28;20557;-63
2023/04/14 06:54:51;;;;;;;3.87;2.27;;;6.50;98.00;;;;;;5049951;28;20453;-64
2023/04/14 06:57:18;;;;;;;2.83;1.70;;;6.50;98.00;;;;;;5051353;28;21024;-63
2023/04/14 06:59:45;;;;;;;3.27;2.00;;;6.60;98.00;;;;;;5051498;28;20457;-63
2023/04/14 07:02:12;;;;;;;4.13;2.50;;;6.60;98.00;;;;;;5050912;28;20576;-63
2023/04/14 07:04:41;;;;;;;4.50;2.57;;;6.70;98.00;;;;;;5051191;28;20512;-63
2023/04/14 07:07:08;;;;;;;2.23;1.80;;;6.90;98.00;;;;;;5051063;28;20938;-63
2023/04/14 07:09:35;;;;;;;3.80;2.43;;;7.10;98.00;;;;;;5051059;28;20463;-63
2023/04/14 07:12:02;;;;;;;3.23;1.90;;;7.30;98.00;;;;;;5050995;28;20987;-63
2023/04/14 07:14:31;;;;;;;7.10;2.70;;;7.40;98.00;;;;;;5050514;28;20508;-65
2023/04/14 07:16:59;;;;;;;3.13;2.03;;;7.50;98.00;;;;;;5033157;28;20451;-63
2023/04/14 07:19:26;;;;;;;3.17;2.10;;;7.60;98.00;;;;;;5029497;28;20476;-62
2023/04/14 07:21:55;;;;;;;3.37;2.43;;;7.60;98.00;;;;;;5029568;28;20509;-64
2023/04/14 07:24:22;;;;;;;5.47;2.30;;;7.80;98.00;;;;;;5030798;28;21024;-63
2023/04/14 07:26:51;;;;;;;2.93;2.30;;;7.90;98.00;;;;;;5030814;28;20462;-65
2023/04/14 07:29:18;;;;;;;5.37;2.87;;;8.00;98.00;;;;;;5030114;28;20460;-62
2023/04/14 07:31:45;;;;;;;5.20;2.57;;;8.00;98.00;;;;;;5030735;28;20480;-63
2023/04/14 07:34:13;;;;;;;3.50;2.10;;;8.10;98.00;;;;;;5030819;28;20457;-62
2023/04/14 07:36:40;;;;;;;4.07;1.87;;;8.10;98.00;;;;;;5029258;28;20889;-62
2023/04/14 07:39:10;;;;;;;4.03;2.23;;;8.20;98.00;;;;;;5030547;28;20457;-63
2023/04/14 07:41:38;;;;;;;3.50;2.17;;;8.20;98.00;;;;;;5033983;28;20572;-63
2023/04/14 07:44:06;;;;;;;4.13;2.20;;;8.50;98.00;;;;;;5032564;28;20466;-63
2023/04/14 07:46:33;;;;;;;1.80;1.60;;;8.60;98.00;;;;;;5033340;28;20453;-63
2023/04/14 07:49:00;;;;;;;2.70;1.87;;;8.70;98.00;;;;;;5034605;28;20980;-64
2023/04/14 07:51:27;;;;;;;13.97;1.97;;;9.00;98.00;;;;;;5033302;28;20474;-64
2023/04/14 07:53:54;;;;;;;2.23;1.80;;;9.20;98.00;;;;;;5034568;28;20552;-63
2023/04/14 07:56:23;;;;;;;2.87;2.00;;;9.40;98.00;;;;;;5034441;28;20475;-62
2023/04/14 07:58:50;;;;;;;3.63;1.70;;;9.60;98.00;;;;;;5033420;28;20458;-65
2023/04/14 08:01:17;;;;;;;4.87;1.90;;;9.70;98.00;;;;;;5034241;28;20470;-64
2023/04/14 08:03:44;;;;;;;5.30;2.40;;;9.80;98.00;;;;;;5033233;28;20487;-66
2023/04/14 08:06:11;;;;;;;4.27;1.80;;;9.70;98.00;;;;;;5033509;28;20465;-65
2023/04/14 08:08:39;;;;;;;1.67;1.50;;;9.80;98.00;;;;;;5033613;28;20450;-65
2023/04/14 08:11:06;;;;;;;4.13;2.63;;;10.00;98.00;;;;;;5033608;28;20549;-65
2023/04/14 08:13:35;;;;;;;3.27;1.67;;;10.20;98.00;;;;;;5033425;28;20458;-64
2023/04/14 08:16:02;;;;;;;2.67;1.87;;;10.30;98.00;;;;;;5032800;28;20455;-66
2023/04/14 08:18:30;;;;;;;7.83;2.00;;;10.30;98.00;;;;;;5031756;28;20459;-65
2023/04/14 08:20:57;;;;;;;2.80;2.00;;;10.30;98.00;;;;;;5033158;28;20454;-65
2023/04/14 08:23:24;;;;;;;3.20;1.93;;;10.20;98.00;;;;;;5033411;28;20486;-64
2023/04/14 08:25:51;;;;;;;3.53;1.70;;;9.90;98.00;;;;;;5033497;28;20454;-65
2023/04/14 08:28:18;;;;;;;7.07;2.20;;;9.90;98.00;;;;;;5033618;28;20458;-65
2023/04/14 08:30:48;;;;;;;3.60;2.10;;;10.00;98.00;;;;;;5033301;28;20456;-65
2023/04/14 08:33:18;;;;;;;9.23;1.97;;;10.10;98.00;;;;;;5033428;28;20851;-65
2023/04/14 08:35:45;;;;;;;2.27;1.67;;;10.00;98.00;;;;;;5033373;28;20516;-64
2023/04/14 08:38:12;;;;;;;3.70;1.90;;;10.10;98.00;;;;;;5033384;28;20883;-66
2023/04/14 08:40:42;;;;;;;3.73;2.17;;;10.10;98.00;;;;;;5033232;28;20953;-67
2023/04/14 08:43:09;;;;;;;2.50;1.67;;;10.20;98.00;;;;;;5032995;28;21025;-65
2023/04/14 08:45:37;;;;;;;2.40;1.80;;;10.20;98.00;;;;;;5033223;28;20470;-64
2023/04/14 08:48:05;;;;;;;3.93;1.50;;;10.30;98.00;;;;;;5033261;28;20456;-65
2023/04/14 08:50:37;;;;;;;9.20;1.97;;;10.50;98.00;;;;;;5032682;28;20871;-65
2023/04/14 08:53:09;;;;;;;1.97;1.60;;;10.40;98.00;;;;;;5031863;28;20819;-65
2023/04/14 08:55:41;;;;;;;3.20;1.67;;;10.30;98.00;;;;;;5033150;28;20465;-65
2023/04/14 08:58:09;;;;;;;2.90;1.60;;;10.50;98.00;;;;;;5032802;28;20551;-65
2023/04/14 09:00:37;;;;;;;4.50;1.83;;;10.70;98.00;;;;;;5032383;28;20478;-64
2023/04/14 09:03:07;;;;;;;3.10;2.00;;;10.80;98.00;;;;;;5032401;28;20579;-65
2023/04/14 09:05:35;;;;;;;2.43;1.70;;;11.00;98.00;;;;;;5032468;28;20478;-65
2023/04/14 09:08:03;;;;;;;3.17;2.07;;;11.10;98.00;;;;;;5032354;28;20454;-64
2023/04/14 09:10:31;;;;;;;3.73;1.70;;;11.10;98.00;;;;;;5031096;28;20482;-64
2023/04/14 09:13:00;;;;;;;6.70;2.10;;;11.10;98.00;;;;;;5032202;28;21019;-64
2023/04/14 09:15:28;;;;;;;5.53;2.07;;;11.10;98.00;;;;;;5030719;28;20470;-64
2023/04/14 09:17:58;;;;;;;3.57;1.90;;;11.30;98.00;;;;;;5032449;28;20505;-65
2023/04/14 09:20:28;;;;;;;4.20;2.13;;;11.50;98.00;;;;;;5032160;28;20458;-64
2023/04/14 09:22:57;;;;;;;3.37;2.03;;;11.60;98.00;;;;;;5032789;28;20565;-65
2023/04/14 09:25:25;;;;;;;1.90;1.60;;;11.80;98.00;;;;;;5032894;28;20470;-65
2023/04/14 09:27:52;;;;;;;2.23;1.53;;;12.10;98.00;;;;;;5032610;28;20859;-65
2023/04/14 09:30:19;;;;;;;2.83;2.07;;;12.30;98.00;;;;;;5032800;28;20459;-65
2023/04/14 09:32:46;;;;;;;6.30;2.13;;;12.30;98.00;;;;;;5031414;28;20459;-64
2023/04/14 09:35:15;;;;;;;3.10;1.63;;;12.40;98.00;;;;;;5031227;28;20457;-66
2023/04/14 09:37:45;;;;;;;2.43;2.00;;;12.50;98.00;;;;;;5032365;28;20807;-64
2023/04/14 09:40:27;;;;;;;7.57;2.13;;;12.40;98.00;;;;;;5032341;28;20460;-64
2023/04/14 09:42:56;;;;;;;3.30;2.03;;;12.40;98.00;;;;;;5032500;28;20492;-65
2023/04/14 09:45:40;;;;;;;3.30;2.00;;;12.70;98.00;;;;;;5032517;28;20482;-64
2023/04/14 09:48:09;;;;;;;3.60;1.53;;;13.00;98.00;;;;;;5032806;28;20616;-66
2023/04/14 09:50:57;;;;;;;9.23;1.87;;;13.00;98.00;;;;;;5032009;28;20460;-64
2023/04/14 09:53:30;;;;;;;7.60;2.07;;;13.10;98.00;;;;;;5031895;28;20548;-64
2023/04/14 09:55:58;;;;;;;2.80;1.60;;;13.20;98.00;;;;;;5031953;28;20510;-65
2023/04/14 09:58:31;;;;;;;1.80;1.50;;;13.40;98.00;;;;;;5032041;28;20455;-66
2023/04/14 10:00:59;;;;;;;1.60;1.43;;;13.60;98.00;;;;;;5031482;28;20974;-65
2023/04/14 10:03:37;;;;;;;2.23;1.70;;;13.50;98.00;;;;;;5031195;28;20489;-64
2023/04/14 10:06:08;;;;;;;1.63;1.27;;;13.60;98.00;;;;;;5031321;28;20463;-65
2023/04/14 10:08:38;;;;;;;2.87;1.90;;;13.80;98.00;;;;;;5031337;28;20461;-65
2023/04/14 10:11:17;;;;;;;2.43;1.70;;;14.10;98.00;;;;;;5031228;28;20468;-64
2023/04/14 10:13:44;;;;;;;4.80;1.47;;;14.30;98.00;;;;;;5031289;28;20455;-65
2023/04/14 10:16:11;;;;;;;2.03;1.33;;;14.50;98.00;;;;;;5031406;28;20562;-65
2023/04/14 10:18:38;;;;;;;1.60;1.50;;;14.70;98.00;;;;;;5031228;28;20515;-65
2023/04/14 10:21:07;;;;;;;3.00;1.43;;;14.90;98.00;;;;;;5030930;28;20868;-65
2023/04/14 10:23:38;;;;;;;2.20;1.50;;;14.80;98.00;;;;;;5031380;28;20858;-65
2023/04/14 10:26:06;;;;;;;2.77;1.73;;;14.80;98.00;;;;;;5031282;28;20699;-64
2023/04/14 10:28:35;;;;;;;8.73;2.03;;;14.80;98.00;;;;;;5031170;28;20492;-64
2023/04/14 10:31:07;;;;;;;3.27;1.50;;;14.80;98.00;;;;;;5031373;28;20465;-65
2023/04/14 10:33:37;;;;;;;2.60;1.67;;;15.10;98.00;;;;;;5030971;28;20455;-65
2023/04/14 10:36:05;;;;;;;1.90;1.80;;;15.30;98.00;;;;;;5030946;28;20557;-64
2023/04/14 10:38:42;;;;;;;2.00;1.40;;;15.50;98.00;;;;;;5031164;28;20949;-65
2023/04/14 10:41:10;;;;;;;2.27;1.60;;;15.60;98.00;;;;;;5031230;28;20546;-64
2023/04/14 10:43:39;;;;;;;1.70;1.40;;;15.70;98.00;;;;;;5031354;28;20514;-65
2023/04/14 10:46:08;;;;;;;2.63;1.60;;;15.90;97.20;;;;;;5031347;28;20543;-64
2023/04/14 10:48:36;;;;;;;3.03;1.63;;;16.00;97.50;;;;;;5031330;28;20964;-66
2023/04/14 10:51:05;;;;;;;5.33;1.80;;;16.30;96.00;;;;;;5031599;28;20818;-65
2023/04/14 10:53:45;;;;;;;3.23;1.97;;;16.40;95.60;;;;;;5031847;28;20842;-64
2023/04/14 10:56:13;;;;;;;4.13;1.87;;;16.20;95.00;;;;;;5032237;28;20457;-64
2023/04/14 10:58:40;;;;;;;5.00;1.63;;;15.90;96.80;;;;;;5031302;28;20469;-64
2023/04/14 11:01:24;;;;;;;4.80;1.50;;;16.00;93.40;;;;;;5031098;28;20467;-62
2023/04/14 11:03:52;;;;;;;3.80;1.67;;;16.40;93.60;;;;;;5030818;28;20488;-65
2023/04/14 11:06:51;;;;;;;4.43;2.00;;;16.70;93.00;;;;;;5030945;28;20455;-65
2023/04/14 11:09:36;;;;;;;2.73;1.63;;;16.60;91.50;;;;;;5009391;28;20451;-64
2023/04/14 11:12:05;;;;;;;3.20;2.00;;;16.20;91.90;;;;;;5025998;28;20466;-65
2023/04/14 11:14:35;;;;;;;2.33;1.33;;;15.90;92.70;;;;;;5051595;28;20831;-64
2023/04/14 11:17:04;;;;;;;3.23;1.50;;;15.80;94.50;;;;;;5055147;28;20468;-64
2023/04/14 11:19:33;;;;;;;2.53;1.50;;;15.80;92.80;;;;;;5054841;28;20993;-64
2023/04/14 11:22:00;;;;;;;2.87;1.70;;;16.00;91.90;;;;;;5055185;28;20510;-64
2023/04/14 11:24:28;;;;;;;2.50;1.50;;;16.40;91.40;;;;;;5054735;28;20564;-64
2023/04/14 11:26:57;;;;;;;5.60;1.70;;;16.90;95.90;;;;;;5055075;28;20948;-64
2023/04/14 11:29:24;;;;;;;1.60;1.33;;;17.40;94.80;;;;;;5051504;28;20450;-65
2023/04/14 11:32:02;;;;;;;3.33;1.33;;;17.50;92.10;;;;;;5044789;28;20505;-64
2023/04/14 11:34:31;;;;;;;4.03;1.80;;;17.50;87.70;;;;;;5042662;28;20461;-64
2023/04/14 11:37:02;;;;;;;1.93;1.33;;;17.00;87.10;;;;;;5054915;28;20452;-64
2023/04/14 11:39:29;;;;;;;2.30;1.60;;;16.60;89.40;;;;;;5053521;28;20478;-65
2023/04/14 11:41:59;;;;;;;4.00;1.70;;;16.20;89.70;;;;;;5054846;28;20457;-65
2023/04/14 11:44:26;;;;;;;3.07;1.50;;;16.00;90.50;;;;;;5054244;28;20520;-64
2023/04/14 11:46:54;;;;;;;3.60;1.80;;;16.20;90.30;;;;;;5055038;28;20467;-64
2023/04/14 11:49:33;;;;;;;4.20;1.80;;;16.70;88.90;;;;;;5054510;28;20468;-64
2023/04/14 11:52:05;;;;;;;3.03;1.80;;;17.40;87.40;;;;;;5054714;28;20485;-64
2023/04/14 11:54:35;;;;;;;3.33;1.77;;;17.40;87.10;;;;;;5054607;28;20462;-64
2023/04/14 11:57:09;;;;;;;3.30;1.60;;;17.00;86.10;;;;;;5054326;28;20471;-64
2023/04/14 11:59:42;;;;;;;2.10;1.70;;;16.90;88.10;;;;;;5054432;28;20469;-65
2023/04/14 12:02:16;;;;;;;4.70;1.70;;;17.30;87.40;;;;;;5053190;28;20496;-64
2023/04/14 12:04:43;;;;;;;2.07;1.50;;;17.80;82.50;;;;;;5054094;28;20492;-64
2023/04/14 12:07:12;;;;;;;1.77;1.50;;;18.30;84.70;;;;;;5054382;28;20461;-65
2023/04/14 12:09:42;;;;;;;2.97;1.70;;;18.50;83.10;;;;;;5054104;28;20466;-65
2023/04/14 12:12:13;;;;;;;4.30;1.87;;;18.90;80.10;;;;;;5054133;28;20544;-64
2023/04/14 12:14:42;;;;;;;2.67;1.57;;;19.30;82.70;;;;;;5054081;28;20458;-65
2023/04/14 12:17:09;;;;;;;2.80;1.67;;;19.40;77.80;;;;;;5054488;28;20442;-62
2023/04/14 12:19:37;;;;;;;4.33;1.80;;;19.10;81.20;;;;;;5054055;28;20523;-62
2023/04/14 12:22:05;;;;;;;2.87;1.57;;;18.10;82.30;;;;;;5052785;28;20581;-62
2023/04/14 12:24:36;;;;;;;2.60;1.67;;;17.40;82.70;;;;;;5052352;28;20481;-61
2023/04/14 12:27:05;;;;;;;2.50;1.40;;;16.70;83.30;;;;;;5051335;28;20504;-61
2023/04/14 12:29:34;;;;;;;2.97;1.30;;;16.50;86.10;;;;;;5053077;28;20449;-63
2023/04/14 12:32:03;;;;;;;3.07;1.80;;;16.20;83.40;;;;;;5053369;28;20453;-62
2023/04/14 12:34:31;;;;;;;1.80;1.60;;;16.10;84.30;;;;;;5052060;28;20469;-62
2023/04/14 12:36:59;;;;;;;1.83;1.40;;;16.20;83.00;;;;;;5053306;28;20976;-63
2023/04/14 12:39:27;;;;;;;1.43;1.30;;;16.80;82.70;;;;;;5053552;28;20461;-62
2023/04/14 12:41:58;;;;;;;2.53;1.50;;;17.70;84.70;;;;;;5052080;28;20492;-62
2023/04/14 12:44:25;;;;;;;1.47;1.23;;;18.20;72.20;;;;;;5053166;28;20531;-62
2023/04/14 12:46:54;;;;;;;2.57;1.70;;;19.00;74.00;;;;;;5051899;28;20461;-62
2023/04/14 12:49:37;;;;;;;2.90;1.90;;;19.40;75.90;;;;;;5053096;28;20460;-63
2023/04/14 12:52:06;;;;;;;5.37;1.40;;;19.60;77.00;;;;;;5052966;28;20589;-62
2023/04/14 12:54:50;;;;;;;2.30;1.73;;;19.10;76.80;;;;;;5053108;28;20450;-62
2023/04/14 12:57:20;;;;;;;3.20;1.73;;;18.70;82.00;;;;;;5052851;28;20457;-62
2023/04/14 12:59:50;;;;;;;2.00;1.67;;;19.10;80.60;;;;;;5052826;28;20515;-62
2023/04/14 13:02:21;;;;;;;4.13;1.60;;;19.50;80.50;;;;;;5052816;28;20504;-62
2023/04/14 13:04:48;;;;;;;3.70;2.30;;;19.90;73.40;;;;;;5051373;28;20494;-62